createdAt,value
2023-01-13T00:01:25.345Z,23.13
2023-01-13T00:03:53.061Z,23.45
2023-01-13T00:06:23.266Z,24.48
2023-01-13T00:08:51.793Z,28.95
2023-01-13T00:11:19.955Z,27.15
2023-01-13T00:13:47.477Z,28.08
2023-01-13T00:16:16.938Z,28.02
2023-01-13T00:18:45.741Z,32.25
2023-01-13T00:21:15.724Z,34.92
2023-01-13T00:23:43.687Z,33.33
2023-01-13T00:26:14.935Z,33.13
2023-01-13T00:28:42.398Z,36.72
2023-01-13T00:31:12.548Z,34.92
2023-01-13T00:33:40.171Z,33.38
2023-01-13T00:36:09.176Z,32.65
2023-01-13T00:38:38.794Z,29.90
2023-01-13T00:41:08.988Z,31.02
2023-01-13T00:43:37.293Z,30.88
2023-01-13T00:46:06.339Z,27.45
2023-01-13T00:48:34.351Z,26.90
2023-01-13T00:51:07.816Z,31.17
2023-01-13T00:53:37.758Z,26.52
2023-01-13T00:56:14.278Z,30.08
2023-01-13T00:58:43.081Z,31.65
2023-01-13T01:01:14.160Z,27.17
2023-01-13T01:03:41.499Z,27.60
2023-01-13T01:06:12.510Z,27.95
2023-01-13T01:08:40.543Z,32.40
2023-01-13T01:11:08.987Z,26.20
2023-01-13T01:13:36.768Z,28.88
2023-01-13T01:16:09.343Z,29.60
2023-01-13T01:18:38.804Z,25.30
2023-01-13T01:21:06.893Z,27.40
2023-01-13T01:23:34.915Z,25.38
2023-01-13T01:26:13.094Z,27.05
2023-01-13T01:28:40.891Z,27.42
2023-01-13T01:31:16.297Z,29.48
2023-01-13T01:33:43.851Z,30.33
2023-01-13T01:36:13.116Z,25.55
2023-01-13T01:38:40.713Z,26.08
2023-01-13T01:41:09.912Z,24.30
2023-01-13T01:44:02.724Z,31.42
2023-01-13T01:46:39.027Z,30.33
2023-01-13T01:49:17.974Z,25.30
2023-01-13T01:52:09.395Z,27.83
2023-01-13T01:54:39.362Z,28.73
2023-01-13T01:57:10.167Z,24.00
2023-01-13T01:59:38.908Z,29.77
2023-01-13T02:02:07.386Z,28.83
2023-01-13T02:04:39.548Z,30.33
2023-01-13T02:07:07.948Z,27.40
2023-01-13T02:09:36.434Z,30.70
2023-01-13T02:12:22.471Z,26.63
2023-01-13T02:14:49.865Z,28.73
2023-01-13T02:17:41.002Z,28.67
2023-01-13T02:20:30.101Z,26.77
2023-01-13T02:23:06.177Z,30.15
2023-01-13T02:25:36.215Z,30.10
2023-01-13T02:28:14.216Z,28.02
2023-01-13T02:31:09.188Z,25.90
2023-01-13T02:33:48.639Z,25.23
2023-01-13T02:36:29.019Z,29.85
2023-01-13T02:39:03.047Z,27.08
2023-01-13T02:42:09.016Z,27.38
2023-01-13T02:45:04.988Z,24.80
2023-01-13T02:47:36.686Z,25.80
2023-01-13T02:50:11.403Z,28.48
2023-01-13T02:52:51.154Z,29.77
2023-01-13T02:55:31.436Z,30.65
2023-01-13T02:58:00.995Z,30.58
2023-01-13T03:00:29.726Z,29.33
2023-01-13T03:02:57.136Z,31.13
2023-01-13T03:05:25.215Z,27.25
2023-01-13T03:08:15.645Z,29.95
2023-01-13T03:10:44.367Z,33.55
2023-01-13T03:13:20.197Z,27.98
2023-01-13T03:15:53.500Z,28.15
2023-01-13T03:18:51.784Z,27.80
2023-01-13T03:21:25.276Z,28.50
2023-01-13T03:24:28.255Z,25.80
2023-01-13T03:27:11.673Z,24.05
2023-01-13T03:29:43.112Z,27.88
2023-01-13T03:32:40.765Z,28.33
2023-01-13T03:35:18.415Z,24.75
2023-01-13T03:37:56.941Z,22.17
2023-01-13T03:40:30.509Z,21.50
2023-01-13T03:43:22.221Z,22.33
2023-01-13T03:45:55.302Z,21.05
2023-01-13T03:48:25.512Z,20.00
2023-01-13T03:50:56.306Z,20.45
2023-01-13T03:53:30.744Z,21.40
2023-01-13T03:56:05.430Z,20.42
2023-01-13T03:58:47.788Z,21.95
2023-01-13T04:01:31.950Z,24.10
2023-01-13T04:04:03.217Z,21.48
2023-01-13T04:06:30.481Z,21.40
2023-01-13T04:09:14.815Z,21.50
2023-01-13T04:12:12.925Z,20.20
2023-01-13T04:14:41.496Z,23.52
2023-01-13T04:17:08.755Z,23.63
2023-01-13T04:19:36.081Z,19.77
2023-01-13T04:22:03.461Z,19.02
2023-01-13T04:24:30.674Z,22.83
2023-01-13T04:26:58.149Z,20.27
2023-01-13T04:29:25.606Z,20.63
2023-01-13T04:31:52.865Z,23.70
2023-01-13T04:34:20.125Z,21.17
2023-01-13T04:36:47.394Z,22.98
2023-01-13T04:39:14.654Z,22.90
2023-01-13T04:42:01.348Z,20.88
2023-01-13T04:44:31.323Z,27.38
2023-01-13T04:46:58.890Z,21.13
2023-01-13T04:49:26.392Z,20.42
2023-01-13T04:51:53.817Z,23.17
2023-01-13T04:54:39.243Z,22.48
2023-01-13T04:57:06.539Z,21.25
2023-01-13T04:59:34.660Z,19.55
2023-01-13T05:02:02.337Z,20.75
2023-01-13T05:07:32.938Z,17.73
2023-01-13T05:13:29.589Z,18.85
2023-01-13T05:16:15.367Z,21.25
2023-01-13T05:18:45.864Z,19.67
2023-01-13T05:21:33.076Z,18.35
2023-01-13T05:24:18.909Z,18.58
2023-01-13T05:26:46.573Z,18.42
2023-01-13T05:32:44.373Z,22.85
2023-01-13T05:35:13.822Z,21.10
2023-01-13T05:37:41.419Z,19.13
2023-01-13T05:40:28.612Z,22.38
2023-01-13T05:43:25.628Z,21.60
2023-01-13T05:45:58.813Z,24.30
2023-01-13T05:48:35.772Z,20.23
2023-01-13T05:51:04.901Z,20.98
2023-01-13T05:53:32.581Z,20.67
2023-01-13T05:56:00.555Z,21.55
2023-01-13T05:58:28.291Z,21.95
2023-01-13T06:01:04.849Z,21.75
2023-01-13T06:03:32.649Z,22.10
2023-01-13T06:06:02.078Z,20.58
2023-01-13T06:08:39.434Z,22.13
2023-01-13T06:11:07.339Z,23.08
2023-01-13T06:13:34.867Z,19.83
2023-01-13T06:16:02.433Z,19.55
2023-01-13T06:18:29.932Z,21.60
2023-01-13T06:20:57.349Z,19.77
2023-01-13T06:24:15.243Z,20.35
2023-01-13T06:26:42.710Z,20.50
2023-01-13T06:29:13.283Z,20.75
2023-01-13T06:31:40.939Z,24.80
2023-01-13T06:34:13.291Z,22.75
2023-01-13T06:36:51.882Z,26.27
2023-01-13T06:39:24.676Z,21.58
2023-01-13T06:42:12.575Z,20.48
2023-01-13T06:44:40.175Z,19.77
2023-01-13T06:47:07.929Z,21.60
2023-01-13T06:49:35.240Z,22.33
2023-01-13T06:52:02.527Z,21.45
2023-01-13T06:54:30.018Z,19.02
2023-01-13T06:56:57.377Z,19.80
2023-01-13T06:59:25.256Z,16.48
2023-01-13T07:01:53.046Z,21.95
2023-01-13T07:04:20.487Z,21.58
2023-01-13T07:06:47.742Z,22.63
2023-01-13T07:09:15.099Z,16.88
2023-01-13T07:11:42.559Z,18.45
2023-01-13T07:14:28.550Z,20.55
2023-01-13T07:16:56.243Z,18.87
2023-01-13T07:19:23.928Z,15.82
2023-01-13T07:21:52.704Z,24.80
2023-01-13T07:24:20.423Z,20.80
2023-01-13T07:26:47.935Z,18.58
2023-01-13T07:29:15.415Z,18.65
2023-01-13T07:31:42.732Z,16.50
2023-01-13T07:34:10.337Z,16.33
2023-01-13T07:36:37.659Z,15.55
2023-01-13T07:39:05.621Z,17.08
2023-01-13T07:41:51.661Z,16.50
2023-01-13T07:44:18.945Z,17.40
2023-01-13T07:46:46.486Z,19.45
2023-01-13T07:49:14.157Z,20.23
2023-01-13T07:51:41.581Z,17.95
2023-01-13T07:54:08.878Z,16.00
2023-01-13T07:56:36.428Z,19.05
2023-01-13T07:59:04.321Z,19.38
2023-01-13T08:01:32.078Z,18.25
2023-01-13T08:03:59.551Z,26.42
2023-01-13T08:06:27.054Z,17.48
2023-01-13T08:08:54.539Z,19.83
2023-01-13T08:11:23.597Z,16.65
2023-01-13T08:13:55.104Z,20.10
2023-01-13T08:16:23.853Z,20.67
2023-01-13T08:18:51.215Z,19.25
2023-01-13T08:21:18.735Z,19.67
2023-01-13T08:23:46.186Z,18.67
2023-01-13T08:26:16.366Z,22.42
2023-01-13T08:28:44.696Z,17.90
2023-01-13T08:31:15.741Z,17.48
2023-01-13T08:33:43.399Z,16.33
2023-01-13T08:36:12.456Z,19.02
2023-01-13T08:38:41.450Z,15.68
2023-01-13T08:41:14.325Z,18.67
2023-01-13T08:43:41.897Z,19.70
2023-01-13T08:46:09.480Z,15.88
2023-01-13T08:48:37.047Z,19.42
2023-01-13T08:51:06.399Z,20.42
2023-01-13T08:53:34.002Z,19.50
2023-01-13T08:56:01.490Z,24.67
2023-01-13T08:58:29.033Z,19.42
2023-01-13T09:00:56.505Z,21.65
2023-01-13T09:03:23.878Z,22.85
2023-01-13T09:05:51.180Z,20.20
2023-01-13T09:08:18.753Z,25.15
2023-01-13T09:10:46.130Z,22.17
2023-01-13T09:13:14.107Z,23.73
2023-01-13T09:15:44.170Z,18.20
2023-01-13T09:18:12.880Z,24.52
2023-01-13T09:20:40.309Z,25.08
2023-01-13T09:23:10.585Z,23.60
2023-01-13T09:25:38.934Z,26.92
2023-01-13T09:28:09.920Z,30.13
2023-01-13T09:30:38.112Z,27.92
2023-01-13T09:33:24.010Z,28.13
2023-01-13T09:35:51.495Z,29.90
2023-01-13T09:38:18.773Z,27.30
2023-01-13T09:40:48.916Z,30.63
2023-01-13T09:43:55.298Z,32.75
2023-01-13T09:46:48.976Z,29.45
2023-01-13T09:49:28.628Z,33.67
2023-01-13T09:52:03.462Z,34.83
2023-01-13T09:54:42.852Z,34.95
2023-01-13T09:57:12.849Z,29.60
2023-01-13T09:59:40.991Z,34.38
2023-01-13T10:02:15.013Z,30.52
2023-01-13T10:05:02.035Z,29.83
2023-01-13T10:07:32.077Z,28.98
2023-01-13T10:10:01.234Z,27.38
2023-01-13T10:12:49.116Z,27.85
2023-01-13T10:15:20.462Z,32.58
2023-01-13T10:18:24.202Z,32.22
2023-01-13T10:21:00.308Z,27.08
2023-01-13T10:23:46.464Z,29.42
2023-01-13T10:26:47.215Z,31.23
2023-01-13T10:29:26.326Z,30.48
2023-01-13T10:31:55.288Z,32.75
2023-01-13T10:34:23.894Z,30.45
2023-01-13T10:37:00.553Z,33.20
2023-01-13T10:39:28.384Z,29.73
2023-01-13T10:42:07.146Z,34.58
2023-01-13T10:44:59.839Z,34.67
2023-01-13T10:47:36.256Z,34.22
2023-01-13T10:52:54.849Z,35.95
2023-01-13T10:55:30.179Z,33.08
2023-01-13T10:57:57.775Z,33.03
2023-01-13T11:00:33.684Z,30.92
2023-01-13T11:03:21.988Z,31.20
2023-01-13T11:05:57.870Z,35.25
2023-01-13T11:08:28.038Z,30.10
2023-01-13T11:10:57.774Z,37.45
2023-01-13T11:13:57.371Z,39.33
2023-01-13T11:16:25.915Z,42.90
2023-01-13T11:19:02.453Z,54.22
2023-01-13T11:21:56.088Z,51.78
2023-01-13T11:24:59.579Z,52.47
2023-01-13T11:27:41.720Z,40.88
2023-01-13T11:30:34.158Z,37.55
2023-01-13T11:33:10.730Z,36.22
2023-01-13T11:35:51.403Z,30.50
2023-01-13T11:38:49.492Z,32.08
2023-01-13T11:41:16.723Z,34.35
2023-01-13T11:44:07.802Z,26.88
2023-01-13T11:46:35.272Z,29.33
2023-01-13T11:49:04.158Z,26.02
2023-01-13T11:51:53.303Z,23.50
2023-01-13T11:54:26.494Z,24.08
2023-01-13T11:57:23.749Z,19.63
2023-01-13T12:00:19.405Z,28.95
2023-01-13T12:03:01.322Z,26.90
2023-01-13T12:05:42.325Z,25.67
2023-01-13T12:08:53.208Z,28.75
2023-01-13T12:12:22.170Z,22.52
2023-01-13T12:15:55.721Z,29.30
2023-01-13T12:18:51.633Z,26.30
2023-01-13T12:21:29.159Z,24.15
2023-01-13T12:24:17.711Z,23.92
2023-01-13T12:27:21.291Z,28.77
2023-01-13T12:29:52.399Z,30.23
2023-01-13T12:32:25.218Z,29.90
2023-01-13T12:34:58.440Z,27.25
2023-01-13T12:37:55.280Z,26.65
2023-01-13T12:40:28.799Z,26.38
2023-01-13T12:43:21.634Z,28.95
2023-01-13T12:45:49.142Z,25.85
2023-01-13T12:48:57.150Z,28.38
2023-01-13T12:51:28.568Z,25.70
2023-01-13T12:53:56.605Z,20.92
2023-01-13T12:56:44.811Z,27.58
2023-01-13T12:59:20.653Z,22.70
2023-01-13T13:01:50.170Z,25.27
2023-01-13T13:04:20.140Z,26.23
2023-01-13T13:06:54.780Z,26.35
2023-01-13T13:09:30.734Z,24.65
2023-01-13T13:11:58.046Z,22.30
2023-01-13T13:14:55.013Z,24.02
2023-01-13T13:17:28.465Z,22.92
2023-01-13T13:19:57.609Z,21.17
2023-01-13T13:22:28.186Z,22.17
2023-01-13T13:24:55.781Z,21.33
2023-01-13T13:27:38.683Z,24.58
2023-01-13T13:30:33.765Z,25.73
2023-01-13T13:33:13.864Z,22.17
2023-01-13T13:35:53.232Z,20.45
2023-01-13T13:38:54.473Z,22.17
2023-01-13T13:41:52.306Z,20.70
2023-01-13T13:44:59.385Z,20.27
2023-01-13T13:47:35.665Z,21.55
2023-01-13T13:50:13.864Z,22.35
2023-01-13T13:53:01.088Z,20.67
2023-01-13T13:55:29.725Z,26.40
2023-01-13T13:57:59.151Z,23.08
2023-01-13T14:00:37.988Z,18.38
2023-01-13T14:03:22.788Z,18.75
2023-01-13T14:06:02.700Z,22.02
2023-01-13T14:08:39.434Z,15.27
2023-01-13T14:11:27.479Z,22.60
2023-01-13T14:14:14.452Z,23.98
2023-01-13T14:16:41.860Z,23.98
2023-01-13T14:19:32.512Z,21.95
2023-01-13T14:22:02.226Z,25.67
2023-01-13T14:24:31.523Z,23.98
2023-01-13T14:27:10.406Z,22.08
2023-01-13T14:29:38.020Z,18.33
2023-01-13T14:32:06.832Z,18.55
2023-01-13T14:34:35.382Z,20.63
2023-01-13T14:37:03.731Z,18.98
2023-01-13T14:42:18.996Z,20.65
2023-01-13T14:44:49.754Z,45.00
2023-01-13T14:47:17.053Z,34.38
2023-01-13T14:49:59.019Z,21.35
2023-01-13T14:52:29.352Z,18.27
2023-01-13T14:55:05.726Z,20.58
2023-01-13T14:57:35.315Z,20.05
2023-01-13T15:00:14.805Z,16.10
2023-01-13T15:02:48.377Z,16.50
2023-01-13T15:05:19.024Z,23.27
2023-01-13T15:08:11.036Z,19.35
2023-01-13T15:10:45.863Z,17.80
2023-01-13T15:13:41.878Z,22.27
2023-01-13T15:16:24.733Z,21.42
2023-01-13T15:18:53.237Z,20.88
2023-01-13T15:21:20.975Z,18.80
2023-01-13T15:23:48.699Z,19.05
2023-01-13T15:26:28.221Z,19.52
2023-01-13T15:28:57.824Z,20.80
2023-01-13T15:31:26.791Z,19.40
2023-01-13T15:33:54.782Z,18.85
2023-01-13T15:36:26.187Z,22.30
2023-01-13T15:38:53.988Z,19.65
2023-01-13T15:42:24.619Z,20.85
2023-01-13T15:45:10.288Z,19.63
2023-01-13T15:47:37.535Z,16.20
2023-01-13T15:50:05.084Z,20.17
2023-01-13T15:52:32.345Z,20.98
2023-01-13T15:54:59.729Z,20.45
2023-01-13T15:57:33.290Z,27.02
2023-01-13T16:00:04.430Z,29.00
2023-01-13T16:02:34.485Z,23.35
2023-01-13T16:05:02.225Z,25.63
2023-01-13T16:07:29.551Z,23.48
2023-01-13T16:17:25.267Z,22.35
2023-01-13T16:19:53.585Z,26.02
2023-01-13T16:22:23.336Z,23.50
2023-01-13T16:24:50.754Z,26.50
2023-01-13T16:27:23.352Z,28.23
2023-01-13T16:29:52.062Z,22.35
2023-01-13T16:32:22.352Z,32.85
2023-01-13T16:34:50.712Z,35.00
2023-01-13T16:37:27.195Z,36.88
2023-01-13T16:39:55.146Z,31.48
2023-01-13T16:42:22.963Z,32.50
2023-01-13T16:44:50.771Z,39.90
2023-01-13T16:47:19.113Z,41.97
2023-01-13T16:49:46.628Z,36.63
2023-01-13T16:52:16.523Z,40.25
2023-01-13T16:54:43.841Z,37.10
2023-01-13T16:57:13.077Z,38.53
2023-01-13T16:59:40.801Z,38.78
2023-01-13T17:02:16.269Z,37.00
2023-01-13T17:04:43.583Z,35.33
2023-01-13T17:07:16.337Z,33.78
2023-01-13T17:09:43.729Z,38.03
2023-01-13T17:12:11.673Z,34.90
2023-01-13T17:14:38.904Z,34.83
2023-01-13T17:17:06.226Z,38.50
2023-01-13T17:19:33.476Z,35.63
2023-01-13T17:22:00.729Z,36.35
2023-01-13T17:24:30.888Z,37.38
2023-01-13T17:27:00.845Z,35.08
2023-01-13T17:29:28.393Z,37.42
2023-01-13T17:31:55.854Z,36.67
2023-01-13T17:34:23.202Z,34.40
2023-01-13T17:36:50.514Z,34.88
2023-01-13T17:39:24.391Z,33.85
2023-01-13T17:41:53.350Z,34.22
2023-01-13T17:44:22.039Z,32.92
2023-01-13T17:46:50.014Z,34.45
2023-01-13T17:49:19.291Z,31.45
2023-01-13T17:51:48.322Z,30.77
2023-01-13T17:54:15.964Z,29.92
2023-01-13T17:56:44.369Z,31.65
2023-01-13T17:59:12.933Z,32.63
2023-01-13T18:01:40.933Z,30.00
2023-01-13T18:04:17.172Z,33.45
2023-01-13T18:06:45.180Z,37.63
2023-01-13T18:09:12.837Z,32.22
2023-01-13T18:11:40.152Z,42.28
2023-01-13T18:14:09.398Z,34.85
2023-01-13T18:16:37.576Z,35.08
2023-01-13T18:19:23.787Z,36.42
2023-01-13T18:22:09.711Z,44.47
2023-01-13T18:24:55.590Z,41.13
2023-01-13T18:27:47.345Z,40.15
2023-01-13T18:30:15.047Z,40.67
2023-01-13T18:32:46.194Z,37.50
2023-01-13T18:35:13.936Z,37.35
2023-01-13T18:37:42.340Z,41.25
2023-01-13T18:40:12.808Z,39.75
2023-01-13T18:42:54.283Z,38.15
2023-01-13T18:45:24.773Z,39.75
2023-01-13T18:47:53.692Z,37.25
2023-01-13T18:50:24.449Z,36.35
2023-01-13T18:52:52.118Z,39.03
2023-01-13T18:55:20.960Z,43.78
2023-01-13T18:57:48.896Z,44.00
2023-01-13T19:00:24.948Z,39.92
2023-01-13T19:06:26.103Z,41.03
2023-01-13T19:08:54.999Z,37.97
2023-01-13T19:11:24.074Z,43.90
2023-01-13T19:13:52.554Z,44.15
2023-01-13T19:16:23.620Z,40.20
2023-01-13T19:18:51.033Z,40.10
2023-01-13T19:21:18.403Z,41.72
2023-01-13T19:23:45.733Z,44.65
2023-01-13T19:26:13.374Z,46.58
2023-01-13T19:28:40.941Z,45.40
2023-01-13T19:31:10.678Z,42.38
2023-01-13T19:33:39.768Z,42.97
2023-01-13T19:36:09.710Z,44.08
2023-01-13T19:38:37.748Z,42.05
2023-01-13T19:41:11.752Z,44.40
2023-01-13T19:43:57.639Z,41.53
2023-01-13T19:46:26.240Z,42.92
2023-01-13T19:48:53.584Z,42.50
2023-01-13T19:51:21.038Z,43.63
2023-01-13T19:53:48.388Z,42.67
2023-01-13T19:56:15.713Z,41.97
2023-01-13T19:58:50.265Z,42.95
2023-01-13T20:01:17.789Z,38.65
2023-01-13T20:03:46.019Z,41.40
2023-01-13T20:06:14.265Z,40.70
2023-01-13T20:08:45.940Z,39.50
2023-01-13T20:11:22.228Z,42.03
2023-01-13T20:13:51.974Z,48.47
2023-01-13T20:16:19.500Z,39.30
2023-01-13T20:18:50.041Z,38.38
2023-01-13T20:24:19.223Z,40.10
2023-01-13T20:26:49.573Z,41.95
2023-01-13T20:29:16.836Z,38.30
2023-01-13T20:31:51.020Z,34.03
2023-01-13T20:34:19.161Z,39.17
2023-01-13T20:36:48.929Z,42.38
2023-01-13T20:39:26.755Z,36.60
2023-01-13T20:42:14.118Z,35.65
2023-01-13T20:44:44.116Z,34.35
2023-01-13T20:47:11.938Z,40.90
2023-01-13T20:49:42.113Z,36.03
2023-01-13T20:52:09.814Z,35.13
2023-01-13T20:54:38.419Z,33.63
2023-01-13T20:57:07.984Z,31.42
2023-01-13T20:59:36.912Z,34.15
2023-01-13T21:02:06.407Z,33.00
2023-01-13T21:04:33.792Z,32.10
2023-01-13T21:07:01.185Z,29.80
2023-01-13T21:09:29.253Z,33.78
2023-01-13T21:12:15.625Z,35.05
2023-01-13T21:15:01.873Z,30.92
2023-01-13T21:17:47.896Z,32.30
2023-01-13T21:20:16.266Z,30.88
2023-01-13T21:22:48.033Z,42.58
2023-01-13T21:25:16.586Z,37.63
2023-01-13T21:27:44.192Z,33.40
2023-01-13T21:30:15.711Z,33.08
2023-01-13T21:32:44.114Z,33.45
2023-01-13T21:35:13.191Z,35.47
2023-01-13T21:37:41.769Z,32.50
2023-01-13T21:40:12.600Z,35.63
2023-01-13T21:42:58.933Z,28.48
2023-01-13T21:45:45.099Z,31.55
2023-01-13T21:48:14.688Z,29.80
2023-01-13T21:50:42.374Z,28.23
2023-01-13T21:53:09.680Z,29.27
2023-01-13T21:55:37.561Z,31.08
2023-01-13T21:58:11.660Z,32.45
2023-01-13T22:00:40.733Z,33.45
2023-01-13T22:03:09.688Z,31.25
2023-01-13T22:05:37.990Z,31.90
2023-01-13T22:08:06.128Z,31.00
2023-01-13T22:10:34.421Z,34.47
2023-01-13T22:13:22.758Z,31.13
2023-01-13T22:15:50.087Z,36.08
2023-01-13T22:18:20.125Z,37.95
2023-01-13T22:20:48.685Z,36.03
2023-01-13T22:23:16.001Z,36.70
2023-01-13T22:25:43.273Z,40.22
2023-01-13T22:28:13.767Z,40.25
2023-01-13T22:30:41.252Z,40.13
2023-01-13T22:33:08.547Z,39.28
2023-01-13T22:35:36.406Z,40.58
2023-01-13T22:38:07.126Z,37.88
2023-01-13T22:40:36.966Z,38.63
2023-01-13T22:43:05.362Z,46.38
2023-01-13T22:45:32.682Z,40.95
2023-01-13T22:48:06.887Z,42.90
2023-01-13T22:50:35.122Z,38.08
2023-01-13T22:56:22.418Z,38.83
2023-01-13T22:58:56.625Z,37.88
2023-01-13T23:01:28.230Z,43.97
2023-01-13T23:03:59.084Z,38.17
2023-01-13T23:06:29.241Z,38.63
2023-01-13T23:08:56.955Z,39.53
2023-01-13T23:11:27.279Z,37.50
2023-01-13T23:14:03.481Z,39.05
2023-01-13T23:16:36.910Z,36.35
2023-01-13T23:21:38.011Z,41.60
2023-01-13T23:24:07.545Z,38.90
2023-01-13T23:26:36.707Z,43.92
2023-01-13T23:29:06.818Z,40.47
2023-01-13T23:31:34.778Z,39.55
2023-01-13T23:34:02.112Z,36.53
2023-01-13T23:36:29.993Z,41.13
2023-01-13T23:38:59.144Z,37.30
2023-01-13T23:44:22.750Z,41.85
2023-01-13T23:46:50.049Z,34.57
2023-01-13T23:49:17.377Z,33.28
2023-01-13T23:51:44.698Z,35.65
2023-01-13T23:54:12.098Z,36.50
2023-01-13T23:56:39.691Z,34.55
2023-01-13T23:59:07.322Z,33.23
